Time;durP1;ratioP1;P1;durP2;ratioP2;P2;SDS_P1;SDS_P2;PMS_P1;PMS_P2;Temp;Humidity;BMP_temperature;BMP_pressure;BME280_temperature;BME280_humidity;BME280_pressure;Samples;Min_cycle;Max_cycle;Signal;HPM_P1;HPM_P2
2022/09/06 00:00:07;;;;;;;5.80;5.40;;;17.60;87.70;;;18.39;67.51;98085.44;5054749;28;20959;-78
2022/09/06 00:02:38;;;;;;;4.90;4.50;;;17.60;87.80;;;18.65;67.39;98138.38;5043735;28;20974;-79
2022/09/06 00:05:07;;;;;;;4.90;4.50;;;17.50;87.60;;;18.03;68.24;98060.59;5056512;28;20464;-79
2022/09/06 00:07:35;;;;;;;6.17;5.60;;;17.50;88.10;;;18.56;67.99;98134.47;5082243;28;20453;-78
2022/09/06 00:10:03;;;;;;;5.70;5.30;;;17.40;88.10;;;18.44;68.74;98142.09;5060733;28;20545;-78
2022/09/06 00:12:31;;;;;;;5.20;4.70;;;17.40;88.30;;;18.49;68.95;98140.19;5072877;28;20467;-78
2022/09/06 00:14:58;;;;;;;5.30;4.90;;;17.40;89.30;;;18.51;69.27;98140.78;5059258;28;20473;-79
2022/09/06 00:17:25;;;;;;;6.00;5.50;;;17.30;90.10;;;18.50;69.19;98146.50;5052254;28;20464;-77
2022/09/06 00:19:54;;;;;;;5.80;5.33;;;17.20;90.00;;;18.01;69.09;98079.97;5056572;28;20458;-79
2022/09/06 00:22:21;;;;;;;7.03;5.20;;;17.20;90.10;;;18.18;69.06;98115.38;5063685;28;21037;-81
2022/09/06 00:24:49;;;;;;;5.50;5.10;;;17.10;90.10;;;16.99;69.08;97926.78;5053327;28;20449;-79
2022/09/06 00:27:16;;;;;;;5.63;5.13;;;17.10;90.10;;;18.33;69.14;98136.53;5080261;28;20448;-79
2022/09/06 00:29:44;;;;;;;5.80;5.30;;;17.10;90.20;;;17.82;69.45;98080.41;5051795;28;20518;-79
2022/09/06 00:32:11;;;;;;;5.80;5.30;;;17.10;90.20;;;18.17;69.74;98132.06;5052711;28;20451;-78
2022/09/06 00:34:38;;;;;;;6.03;5.60;;;17.00;90.40;;;18.19;69.80;98138.09;5048444;28;20573;-82
2022/09/06 00:37:07;;;;;;;5.97;5.47;;;17.00;90.50;;;18.23;69.56;98147.41;5064437;28;20464;-74
2022/09/06 00:39:35;;;;;;;5.07;4.67;;;17.00;90.40;;;18.17;69.75;98132.88;5074641;28;20459;-74
2022/09/06 00:42:02;;;;;;;7.90;5.60;;;17.00;90.60;;;18.38;69.67;98149.44;5064531;28;20536;-75
2022/09/06 00:44:29;;;;;;;5.33;4.80;;;17.10;90.60;;;18.37;69.05;98148.59;5072082;28;20456;-76
2022/09/06 00:46:57;;;;;;;5.53;5.13;;;17.10;90.20;;;18.37;68.89;98137.66;5047411;28;20465;-76
2022/09/06 00:49:27;;;;;;;6.10;5.50;;;17.10;90.20;;;18.36;68.91;98138.75;5053852;28;20482;-76
2022/09/06 00:51:59;;;;;;;5.53;5.03;;;17.20;90.00;;;18.45;68.77;98143.75;5051422;28;20455;-75
2022/09/06 00:54:28;;;;;;;6.53;5.97;;;17.30;89.60;;;18.50;68.50;98141.03;5034689;28;20456;-76
2022/09/06 00:56:58;;;;;;;5.50;5.10;;;17.30;89.10;;;18.51;68.29;98154.44;5061659;28;20522;-75
2022/09/06 00:59:27;;;;;;;5.70;5.30;;;17.30;89.20;;;18.38;69.10;98144.78;5054486;28;21051;-75
2022/09/06 01:01:54;;;;;;;6.00;5.57;;;17.30;89.30;;;18.35;68.88;98139.84;5052889;28;20460;-74
2022/09/06 01:04:22;;;;;;;5.50;5.10;;;17.20;89.80;;;18.28;68.98;98144.72;5052511;28;20921;-76
2022/09/06 01:07:00;;;;;;;6.00;5.50;;;17.10;90.20;;;18.29;69.37;98140.06;5053966;28;20464;-76
2022/09/06 01:09:52;;;;;;;5.73;5.33;;;17.10;90.40;;;18.29;69.30;98157.31;5053176;28;20487;-76
2022/09/06 01:12:40;;;;;;;6.40;5.80;;;17.00;90.50;;;18.10;69.57;98126.81;5061228;28;20800;-75
2022/09/06 01:15:25;;;;;;;6.03;5.43;;;16.90;90.60;;;18.27;69.84;98153.97;5049209;28;20453;-76
2022/09/06 01:18:04;;;;;;;6.17;5.57;;;17.00;90.50;;;18.33;69.76;98152.13;5041400;28;20519;-76
2022/09/06 01:21:03;;;;;;;7.30;6.60;;;17.00;90.80;;;18.25;70.02;98150.69;5059388;28;20444;-76
2022/09/06 01:24:16;;;;;;;6.80;6.20;;;17.00;91.00;;;17.82;70.03;98088.59;5039055;28;20467;-75
2022/09/06 01:27:52;;;;;;;6.47;5.97;;;17.00;90.90;;;18.09;70.41;98152.50;5041305;28;20523;-74
2022/09/06 01:30:22;;;;;;;7.03;6.53;;;17.00;90.80;;;18.16;70.14;98152.28;5074553;28;20480;-75
2022/09/06 01:32:56;;;;;;;6.60;6.00;;;17.00;90.60;;;18.16;70.23;98150.38;5040681;28;20490;-76
2022/09/06 01:35:32;;;;;;;7.03;6.43;;;17.00;90.80;;;18.06;70.76;98148.38;5068703;28;20462;-74
2022/09/06 01:38:00;;;;;;;7.27;6.67;;;16.90;91.10;;;18.18;71.02;98152.84;5048865;28;20474;-75
2022/09/06 01:40:28;;;;;;;6.47;6.03;;;16.90;91.70;;;18.26;70.86;98153.19;5048852;28;20878;-75
2022/09/06 01:42:57;;;;;;;7.47;6.73;;;16.90;91.90;;;18.23;70.38;98169.28;5051692;28;20475;-75
2022/09/06 01:45:40;;;;;;;7.90;7.20;;;16.90;91.40;;;18.14;70.81;98158.00;5034026;28;20462;-74
2022/09/06 01:48:16;;;;;;;7.50;6.80;;;16.80;91.80;;;18.18;70.79;98161.06;5037363;28;20701;-75
2022/09/06 01:51:01;;;;;;;7.63;6.60;;;16.80;91.60;;;18.12;70.96;98152.81;5047773;28;20531;-75
2022/09/06 01:54:00;;;;;;;8.63;7.13;;;16.90;91.70;;;18.05;71.21;98159.59;5040861;28;20457;-75
2022/09/06 01:56:38;;;;;;;8.63;7.33;;;16.80;91.60;;;17.91;71.48;98148.22;5043767;28;20954;-74
2022/09/06 01:59:26;;;;;;;8.00;7.20;;;16.80;92.10;;;17.89;72.13;98164.06;5043701;28;20889;-75
2022/09/06 02:02:05;;;;;;;7.77;6.97;;;16.70;92.10;;;17.84;72.24;98165.66;5041814;28;20499;-75
2022/09/06 02:04:41;;;;;;;8.00;7.30;;;16.70;92.30;;;17.82;72.46;98162.38;5040071;28;20538;-75
2022/09/06 02:07:15;;;;;;;8.63;7.67;;;16.80;92.20;;;17.72;73.02;98159.53;5035500;28;20824;-74
2022/09/06 02:09:46;;;;;;;7.97;7.27;;;16.70;92.30;;;17.74;72.67;98160.09;5043189;28;20473;-75
2022/09/06 02:12:16;;;;;;;8.07;7.47;;;16.70;92.60;;;17.71;73.11;98152.44;5046416;28;20459;-75
2022/09/06 02:14:50;;;;;;;8.50;7.80;;;16.60;93.00;;;17.60;73.65;98151.50;5050281;28;20454;-74
2022/09/06 02:17:24;;;;;;;8.33;7.63;;;16.60;93.00;;;17.48;73.50;98126.25;5029855;28;20463;-76
2022/09/06 02:20:01;;;;;;;8.87;7.97;;;16.60;93.10;;;17.57;73.90;98146.53;5043305;28;20509;-75
2022/09/06 02:22:33;;;;;;;9.00;8.20;;;16.60;93.10;;;17.48;74.58;98148.09;5062624;28;20475;-74
2022/09/06 02:25:02;;;;;;;9.23;8.43;;;16.50;93.60;;;17.59;74.01;98149.03;5046005;28;20518;-74
2022/09/06 02:27:30;;;;;;;9.00;8.40;;;16.50;93.50;;;17.58;74.03;98136.47;5049706;28;20502;-73
2022/09/06 02:29:57;;;;;;;8.83;7.93;;;16.50;93.60;;;17.54;74.60;98141.59;5042591;28;21084;-74
2022/09/06 02:32:28;;;;;;;8.90;8.13;;;16.50;94.00;;;17.39;74.78;98134.91;5044092;28;20470;-72
2022/09/06 02:34:57;;;;;;;9.50;8.70;;;16.50;93.90;;;17.54;74.59;98133.41;5041978;28;20461;-73
2022/09/06 02:37:25;;;;;;;9.07;8.03;;;16.50;94.10;;;17.56;74.38;98139.44;5043955;28;20882;-72
2022/09/06 02:39:54;;;;;;;8.80;8.10;;;16.50;94.10;;;17.73;74.39;98139.34;5071151;28;20473;-73
2022/09/06 02:42:23;;;;;;;10.80;8.63;;;16.50;94.30;;;17.33;74.18;98075.88;5052933;28;20465;-74
2022/09/06 02:44:50;;;;;;;9.83;9.03;;;16.50;94.50;;;17.61;74.45;98138.66;5049085;28;20456;-74
2022/09/06 02:47:17;;;;;;;10.20;9.40;;;16.40;94.50;;;17.51;74.56;98121.09;5040328;28;20679;-74
2022/09/06 02:49:46;;;;;;;9.17;8.47;;;16.40;94.50;;;17.56;74.53;98129.34;5044986;28;21039;-73
2022/09/06 02:52:16;;;;;;;9.30;8.40;;;16.40;94.60;;;17.53;74.91;98132.59;5048204;28;20510;-74
2022/09/06 02:54:44;;;;;;;10.47;9.60;;;16.40;94.90;;;17.45;75.18;98140.44;5058518;28;20464;-74
2022/09/06 02:57:11;;;;;;;9.97;9.17;;;16.20;95.30;;;17.38;75.26;98124.25;5051220;28;20973;-72
2022/09/06 02:59:39;;;;;;;10.27;9.43;;;16.20;96.00;;;17.49;75.11;98127.91;5044431;28;20492;-74
2022/09/06 03:02:06;;;;;;;10.23;9.20;;;16.20;96.20;;;17.82;74.83;98132.31;5045711;28;21048;-74
2022/09/06 03:04:33;;;;;;;9.60;8.80;;;16.30;96.80;;;18.06;73.30;98134.72;5048069;28;20456;-73
2022/09/06 03:07:02;;;;;;;8.03;7.43;;;16.70;94.60;;;18.28;72.76;98131.06;5049850;28;20451;-74
2022/09/06 03:09:29;;;;;;;10.17;9.27;;;16.90;94.00;;;18.29;72.17;98138.16;5057329;28;20986;-74
2022/09/06 03:11:57;;;;;;;8.97;8.33;;;17.00;93.00;;;18.12;72.06;98122.75;5054828;28;20482;-73
2022/09/06 03:14:24;;;;;;;10.60;9.70;;;17.10;92.10;;;18.03;72.74;98116.09;5039123;28;20904;-73
2022/09/06 03:16:51;;;;;;;10.33;9.50;;;17.00;92.40;;;17.93;72.98;98129.66;5039365;28;20471;-74
2022/09/06 03:19:20;;;;;;;10.97;10.00;;;16.90;92.60;;;17.60;73.38;98102.34;5053114;28;20957;-73
2022/09/06 03:21:48;;;;;;;10.53;9.73;;;16.80;93.10;;;17.83;73.53;98133.97;5050999;28;20519;-74
2022/09/06 03:24:16;;;;;;;9.67;8.47;;;16.80;93.40;;;17.95;73.50;98141.97;5047432;28;20472;-73
2022/09/06 03:26:44;;;;;;;8.90;8.20;;;16.70;93.80;;;18.12;73.01;98132.84;5032836;28;20542;-74
2022/09/06 03:29:12;;;;;;;9.23;8.50;;;16.80;94.00;;;17.97;72.95;98117.13;5048085;28;20459;-74
2022/09/06 03:31:39;;;;;;;10.97;9.70;;;16.80;93.90;;;18.21;72.15;98131.28;5038225;28;20483;-73
2022/09/06 03:34:06;;;;;;;10.50;9.50;;;16.90;93.40;;;18.25;71.79;98128.81;5069907;28;20452;-74
2022/09/06 03:36:33;;;;;;;10.43;9.47;;;17.00;92.30;;;18.04;72.69;98131.41;5037093;28;20478;-74
2022/09/06 03:39:01;;;;;;;10.37;9.47;;;16.90;92.60;;;17.88;73.00;98130.44;5047424;28;20448;-75
2022/09/06 03:41:29;;;;;;;11.23;10.33;;;16.80;92.90;;;17.36;73.78;98079.97;5044427;28;20475;-75
2022/09/06 03:43:56;;;;;;;10.40;9.50;;;16.70;93.50;;;17.56;74.01;98120.31;5041590;28;20459;-76
2022/09/06 03:46:24;;;;;;;11.40;10.40;;;16.60;93.60;;;17.54;74.18;98117.84;5040766;28;20469;-75
2022/09/06 03:48:51;;;;;;;12.50;11.50;;;16.60;93.60;;;17.45;74.94;98122.13;5042237;28;20464;-76
2022/09/06 03:51:19;;;;;;;12.10;10.90;;;16.50;94.00;;;17.34;75.62;98123.94;5048781;28;20551;-75
2022/09/06 03:53:47;;;;;;;12.03;11.10;;;16.40;94.40;;;17.25;76.24;98111.81;5047451;28;20466;-74
2022/09/06 03:56:14;;;;;;;13.07;11.77;;;16.40;94.90;;;17.24;75.84;98111.00;5047626;28;20468;-75
2022/09/06 03:58:43;;;;;;;11.70;10.80;;;16.30;94.90;;;17.19;75.58;98086.38;5044393;28;20559;-75
2022/09/06 04:01:12;;;;;;;12.47;11.37;;;16.40;94.80;;;17.07;76.15;98080.25;5047378;28;20581;-74
2022/09/06 04:03:40;;;;;;;12.47;11.23;;;16.30;95.20;;;17.32;76.02;98112.44;5043522;28;20783;-73
2022/09/06 04:06:08;;;;;;;13.07;11.87;;;16.30;95.50;;;17.26;76.36;98108.00;5045566;28;20585;-75
2022/09/06 04:08:36;;;;;;;12.90;11.80;;;16.30;95.60;;;17.23;76.33;98114.81;5044053;28;20547;-75
2022/09/06 04:11:05;;;;;;;12.70;11.60;;;16.20;96.10;;;17.20;76.67;98112.59;5043564;28;20483;-76
2022/09/06 04:13:33;;;;;;;10.53;9.60;;;16.10;96.90;;;17.13;76.92;98114.69;5038524;28;20507;-75
2022/09/06 04:16:03;;;;;;;10.87;10.07;;;16.00;97.70;;;17.26;77.38;98119.75;5032572;28;20471;-73
2022/09/06 04:18:31;;;;;;;11.67;10.73;;;16.00;98.70;;;17.34;76.78;98109.44;5039837;28;20479;-74
2022/09/06 04:20:58;;;;;;;13.03;11.83;;;16.10;98.90;;;17.25;76.78;98118.13;5038577;28;20462;-74
2022/09/06 04:23:28;;;;;;;14.60;13.10;;;16.20;97.20;;;17.27;76.69;98115.94;5037565;28;20461;-73
2022/09/06 04:25:58;;;;;;;13.07;11.87;;;16.30;96.30;;;17.35;76.57;98109.19;5039603;28;20988;-74
2022/09/06 04:28:26;;;;;;;14.47;13.37;;;16.30;96.50;;;17.36;76.54;98113.56;5038854;28;20484;-74
2022/09/06 04:30:55;;;;;;;13.73;12.63;;;16.30;96.00;;;16.82;76.25;98027.00;5036213;28;20570;-74
2022/09/06 04:33:24;;;;;;;13.63;12.23;;;16.40;95.70;;;17.20;76.79;98096.19;5050283;28;20448;-74
2022/09/06 04:35:53;;;;;;;14.33;13.03;;;16.30;95.80;;;17.48;76.19;98110.69;5049195;28;20515;-73
2022/09/06 04:38:20;;;;;;;14.43;12.93;;;16.40;95.90;;;17.40;76.49;98101.06;5041391;28;20553;-72
2022/09/06 04:40:47;;;;;;;14.20;12.80;;;16.40;95.70;;;17.36;76.67;98115.47;5054454;28;20595;-73
2022/09/06 04:43:15;;;;;;;13.33;12.23;;;16.40;95.70;;;17.45;76.63;98110.41;5038457;28;20959;-77
2022/09/06 04:45:42;;;;;;;13.93;12.87;;;16.40;96.20;;;17.60;76.83;98112.44;5040309;28;20541;-74
2022/09/06 04:48:10;;;;;;;13.43;12.30;;;16.60;96.30;;;17.87;75.00;98117.03;5062974;28;20460;-75
2022/09/06 04:50:39;;;;;;;13.20;12.10;;;16.70;95.20;;;17.95;74.70;98116.53;5032457;28;20521;-76
2022/09/06 04:53:07;;;;;;;12.63;11.53;;;16.90;94.50;;;18.09;73.67;98122.44;5043393;28;20520;-77
2022/09/06 04:55:34;;;;;;;13.20;12.20;;;17.10;93.30;;;18.11;73.24;98106.59;5041305;28;20508;-77
2022/09/06 04:58:02;;;;;;;12.97;11.87;;;17.20;92.90;;;18.32;73.01;98123.97;5032879;28;20476;-75
2022/09/06 05:00:30;;;;;;;14.00;12.70;;;17.40;92.40;;;18.22;73.06;98112.94;5041043;28;20469;-80
2022/09/06 05:02:59;;;;;;;12.87;11.63;;;17.50;91.60;;;18.53;71.79;98107.66;5066117;28;20583;-73
2022/09/06 05:05:26;;;;;;;12.50;11.30;;;17.70;91.30;;;18.40;72.10;98107.03;5039594;28;20503;-73
2022/09/06 05:07:56;;;;;;;13.50;12.17;;;17.60;91.10;;;18.21;72.73;98101.19;5035481;28;20461;-75
2022/09/06 05:10:24;;;;;;;12.10;11.20;;;17.50;91.70;;;18.34;72.49;98108.09;5041277;28;20992;-73
2022/09/06 05:12:52;;;;;;;16.70;13.20;;;17.40;92.10;;;18.29;73.06;98119.03;5044863;28;20458;-74
2022/09/06 05:15:22;;;;;;;12.60;11.60;;;17.40;92.20;;;18.09;73.61;98117.78;5030087;28;20545;-75
2022/09/06 05:17:49;;;;;;;13.80;12.47;;;17.30;92.30;;;18.26;73.40;98108.59;5030702;28;20966;-79
2022/09/06 05:20:17;;;;;;;14.13;13.03;;;17.30;92.50;;;18.20;73.37;98109.66;5028259;28;20457;-76
2022/09/06 05:22:53;;;;;;;14.13;13.03;;;17.30;92.40;;;18.24;73.19;98099.84;5028505;28;20470;-77
2022/09/06 05:25:21;;;;;;;14.40;13.00;;;17.40;92.40;;;18.25;73.68;98112.41;5036131;28;20552;-77
2022/09/06 05:27:49;;;;;;;14.10;13.00;;;17.40;92.50;;;18.47;72.69;98117.75;5035368;28;20452;-77
2022/09/06 05:30:18;;;;;;;14.20;13.10;;;17.50;92.10;;;18.50;72.62;98130.06;5028351;28;21034;-78
2022/09/06 05:32:45;;;;;;;14.17;13.07;;;17.60;91.90;;;18.52;72.83;98130.63;5033232;28;20479;-77
2022/09/06 05:35:13;;;;;;;15.87;14.27;;;17.60;92.00;;;18.54;72.53;98142.97;5035863;28;20505;-77
2022/09/06 05:37:40;;;;;;;14.70;13.20;;;17.70;91.80;;;18.66;72.55;98139.22;5037281;28;20455;-77
2022/09/06 05:40:09;;;;;;;14.63;13.37;;;17.70;91.90;;;18.73;72.19;98149.88;5044727;28;20475;-75
2022/09/06 05:42:39;;;;;;;14.57;13.37;;;17.80;91.70;;;18.80;71.22;98110.28;5041000;28;20456;-77
2022/09/06 05:45:08;;;;;;;16.63;15.13;;;18.00;91.60;;;19.25;70.59;98151.78;5051641;28;20771;-77
2022/09/06 05:47:35;;;;;;;15.37;13.97;;;18.10;91.20;;;19.18;70.45;98147.66;5030144;28;20453;-79
2022/09/06 05:50:05;;;;;;;15.93;14.63;;;18.40;90.60;;;18.86;71.47;98148.59;5041127;28;20475;-85
2022/09/06 05:52:33;;;;;;;15.90;14.40;;;18.30;90.40;;;19.03;70.93;98154.72;5037443;28;21606;-78
2022/09/06 05:55:01;;;;;;;15.93;14.23;;;18.30;90.50;;;19.19;70.45;98152.88;5038315;28;20922;-84
2022/09/06 05:57:28;;;;;;;16.73;15.23;;;18.30;90.60;;;19.34;69.79;98159.50;5043678;28;20460;-83
2022/09/06 05:59:56;;;;;;;16.80;15.07;;;18.40;90.40;;;19.31;70.29;98138.94;5044373;28;20529;-81
2022/09/06 06:02:25;;;;;;;16.17;14.57;;;18.40;90.50;;;19.01;71.02;98145.13;5035596;28;20461;-81
2022/09/06 06:04:53;;;;;;;16.43;15.00;;;18.20;90.40;;;19.02;71.23;98152.25;5050707;28;20828;-83
2022/09/06 06:07:21;;;;;;;15.83;14.53;;;18.20;90.70;;;19.10;70.70;98132.56;5047326;28;20658;-84
2022/09/06 06:09:48;;;;;;;15.10;13.80;;;18.30;90.60;;;19.52;69.66;98134.34;5053955;28;20883;-79
2022/09/06 06:12:15;;;;;;;15.93;14.60;;;18.50;90.40;;;19.71;68.90;98136.53;5043671;28;20542;-81
2022/09/06 06:14:42;;;;;;;17.73;15.87;;;18.70;90.20;;;19.64;68.80;98131.31;5037894;28;20630;-79
2022/09/06 06:17:11;;;;;;;16.63;15.30;;;18.70;90.00;;;19.95;68.53;98134.09;5039231;28;20511;-79
2022/09/06 06:19:38;;;;;;;15.27;13.80;;;18.90;89.60;;;20.05;67.90;98136.03;5047349;28;20466;-74
2022/09/06 06:22:06;;;;;;;18.70;15.73;;;19.00;89.20;;;20.13;67.72;98142.06;5044597;28;20524;-81
2022/09/06 06:24:34;;;;;;;15.07;13.80;;;19.20;88.70;;;20.22;67.67;98145.88;5036614;28;20453;-82
2022/09/06 06:27:01;;;;;;;16.73;14.97;;;19.20;89.20;;;20.60;66.26;98138.16;5041842;28;20453;-75
2022/09/06 06:29:28;;;;;;;14.60;13.37;;;19.50;88.20;;;20.79;65.18;98132.88;5044471;28;20447;-73
2022/09/06 06:31:55;;;;;;;16.30;14.80;;;19.90;87.40;;;20.30;67.15;98134.38;5033283;28;20475;-79
2022/09/06 06:34:24;;;;;;;15.53;14.17;;;19.70;87.70;;;20.37;67.16;98132.16;5038481;28;20542;-77
2022/09/06 06:36:51;;;;;;;14.63;13.43;;;19.70;87.50;;;20.55;66.38;98121.72;5076709;28;20557;-78
2022/09/06 06:39:19;;;;;;;14.67;13.47;;;19.80;87.50;;;20.73;65.99;98130.44;5051241;28;20456;-83
2022/09/06 06:41:47;;;;;;;14.70;13.57;;;19.90;87.20;;;20.84;65.81;98129.31;5055452;28;20529;-80
2022/09/06 06:44:14;;;;;;;15.00;13.60;;;20.00;87.10;;;20.76;65.98;98133.41;5070409;28;20439;-72
2022/09/06 06:46:42;;;;;;;14.53;13.40;;;19.90;87.00;;;20.71;66.28;98135.38;5070155;28;20448;-73
2022/09/06 06:49:10;;;;;;;13.40;12.20;;;19.90;87.10;;;20.73;66.09;98122.19;5063759;28;20468;-76
2022/09/06 06:51:38;;;;;;;14.03;12.90;;;19.90;87.20;;;20.93;65.69;98127.63;5053824;28;20491;-84
2022/09/06 06:54:06;;;;;;;15.10;13.53;;;20.10;87.00;;;21.05;65.49;98123.75;5039716;28;20523;-82
2022/09/06 06:56:36;;;;;;;13.83;12.63;;;20.10;87.10;;;21.31;64.53;98126.38;5041067;28;20456;-85
2022/09/06 06:59:05;;;;;;;14.03;12.80;;;20.20;86.80;;;21.09;65.39;98111.91;5044819;28;20471;-85
2022/09/06 07:01:35;;;;;;;13.67;12.57;;;20.20;86.80;;;21.40;64.35;98112.84;5033961;28;20446;-75
2022/09/06 07:04:03;;;;;;;13.97;12.60;;;20.40;86.70;;;21.54;63.78;98113.00;5053099;28;20647;-74
2022/09/06 07:06:31;;;;;;;13.23;12.13;;;20.60;86.30;;;21.47;64.14;98103.19;5039012;28;20457;-76
2022/09/06 07:09:00;;;;;;;12.90;11.80;;;20.50;86.40;;;21.84;63.26;98112.00;5044271;28;20470;-74
2022/09/06 07:11:27;;;;;;;13.77;12.57;;;20.80;86.10;;;21.70;63.74;98108.28;5046334;28;20474;-75
2022/09/06 07:13:54;;;;;;;12.70;11.67;;;20.90;85.80;;;21.98;62.87;98112.16;5046219;28;20468;-79
2022/09/06 07:16:24;;;;;;;14.23;12.93;;;21.10;85.40;;;22.25;61.91;98110.81;5038587;28;20470;-75
2022/09/06 07:18:52;;;;;;;14.23;12.93;;;21.30;85.10;;;22.25;62.04;98118.25;5039945;28;20461;-76
2022/09/06 07:21:25;;;;;;;12.33;11.10;;;21.40;85.00;;;22.56;61.56;98126.22;5039484;28;20530;-75
2022/09/06 07:23:53;;;;;;;12.37;11.20;;;21.50;84.90;;;22.47;61.41;98124.13;5046616;28;20466;-75
2022/09/06 07:26:24;;;;;;;12.17;11.27;;;21.70;84.50;;;22.08;62.56;98122.25;5063825;28;20459;-74
2022/09/06 07:28:52;;;;;;;11.87;10.97;;;21.50;84.60;;;22.38;61.40;98119.50;5046400;28;20544;-77
2022/09/06 07:31:19;;;;;;;11.07;10.07;;;21.50;84.60;;;22.33;60.44;98068.91;5038945;28;20535;-75
2022/09/06 07:33:47;;;;;;;12.47;11.57;;;21.70;84.30;;;21.98;62.83;98128.66;5034496;28;20481;-78
2022/09/06 07:36:14;;;;;;;12.60;11.50;;;21.40;84.50;;;21.94;63.14;98119.34;5042081;28;20444;-73
2022/09/06 07:38:42;;;;;;;12.37;11.27;;;21.30;84.80;;;22.46;61.47;98121.59;5043661;28;20464;-77
2022/09/06 07:41:11;;;;;;;12.00;10.90;;;21.50;84.60;;;22.52;61.27;98120.50;5048415;28;20518;-77
2022/09/06 07:43:39;;;;;;;11.70;10.80;;;21.60;84.30;;;22.68;60.82;98123.06;5042885;28;20463;-78
2022/09/06 07:46:09;;;;;;;11.87;10.90;;;21.70;84.10;;;22.89;59.79;98124.47;5038319;28;20466;-77
2022/09/06 07:48:40;;;;;;;11.90;11.03;;;21.90;83.80;;;22.99;59.71;98119.94;5039655;28;20498;-77
2022/09/06 07:51:10;;;;;;;11.67;10.77;;;22.00;83.70;;;22.84;59.89;98127.28;5033985;28;20883;-79
2022/09/06 07:53:39;;;;;;;11.50;10.70;;;22.00;83.30;;;22.62;60.85;98125.88;5035457;28;21124;-82
2022/09/06 07:56:08;;;;;;;12.23;11.20;;;21.80;83.60;;;23.14;59.26;98133.53;5033747;28;20836;-78
2022/09/06 07:58:36;;;;;;;12.40;11.20;;;22.00;83.40;;;23.17;58.92;98130.16;5033649;28;20455;-78
2022/09/06 08:01:26;;;;;;;11.80;10.90;;;22.20;82.90;;;22.90;59.70;98126.09;5046799;28;20496;-81
2022/09/06 08:03:54;;;;;;;11.20;10.10;;;22.20;82.80;;;22.16;62.15;98124.38;5046977;28;20546;-76
2022/09/06 08:06:22;;;;;;;10.10;9.40;;;21.70;83.40;;;22.74;60.51;98128.19;5040389;28;21378;-78
2022/09/06 08:08:50;;;;;;;11.00;10.20;;;21.80;83.60;;;22.62;60.74;98123.13;5036472;28;20463;-76
2022/09/06 08:11:20;;;;;;;11.20;10.13;;;21.80;83.30;;;22.85;60.19;98133.59;5053469;28;20476;-77
2022/09/06 08:13:50;;;;;;;10.80;10.00;;;21.90;83.30;;;22.86;60.00;98130.56;5051691;28;20459;-77
2022/09/06 08:16:18;;;;;;;10.97;10.17;;;22.10;83.10;;;22.83;60.07;98131.16;5044275;28;20837;-75
2022/09/06 08:18:50;;;;;;;10.97;10.07;;;22.00;82.90;;;22.97;59.82;98152.44;5042114;28;20451;-76
2022/09/06 08:21:18;;;;;;;11.37;10.43;;;22.10;82.90;;;23.39;58.43;98131.56;5043041;28;20552;-77
2022/09/06 08:23:48;;;;;;;10.90;10.00;;;22.40;82.60;;;23.75;57.72;98132.97;5041704;28;20545;-76
2022/09/06 08:26:16;;;;;;;10.87;10.17;;;22.70;82.20;;;23.85;56.97;98126.44;5041855;28;20992;-76
2022/09/06 08:28:44;;;;;;;10.30;9.40;;;22.90;81.50;;;23.94;56.85;98123.81;5040544;28;20457;-76
2022/09/06 08:31:13;;;;;;;10.10;9.20;;;23.10;81.50;;;24.44;55.65;98121.34;5045010;28;20499;-76
2022/09/06 08:33:43;;;;;;;9.30;8.70;;;23.30;80.90;;;24.82;54.47;98123.13;5047379;28;20442;-76
2022/09/06 08:36:11;;;;;;;9.30;8.50;;;23.70;80.20;;;24.98;53.71;98120.06;5035272;28;20497;-76
2022/09/06 08:38:39;;;;;;;8.60;8.00;;;23.90;79.50;;;24.76;54.42;98116.06;5046040;28;20888;-76
2022/09/06 08:41:10;;;;;;;10.33;9.40;;;24.00;79.20;;;24.97;54.34;98126.72;5036303;28;20463;-75
2022/09/06 08:43:39;;;;;;;10.10;9.30;;;24.10;79.30;;;25.05;53.56;98120.44;5038844;28;20457;-76
2022/09/06 08:46:09;;;;;;;9.87;9.07;;;24.10;78.70;;;24.80;54.55;98122.63;5033605;28;20464;-76
2022/09/06 08:48:38;;;;;;;9.53;8.87;;;24.00;79.10;;;25.38;52.98;98120.28;5038233;28;20518;-76
2022/09/06 08:51:45;;;;;;;10.30;9.40;;;24.10;78.90;;;24.65;54.26;98125.66;5036683;28;20458;-76
2022/09/06 08:54:20;;;;;;;9.93;9.13;;;23.90;78.60;;;24.78;54.72;98124.84;5031990;28;20456;-76
2022/09/06 08:57:03;;;;;;;9.97;9.17;;;23.90;79.10;;;25.04;54.07;98122.41;5044588;28;20459;-76
2022/09/06 08:59:38;;;;;;;9.63;8.93;;;24.10;78.80;;;24.87;53.31;98084.34;5049383;28;20477;-74
2022/09/06 09:02:12;;;;;;;9.50;8.90;;;24.10;78.20;;;25.06;53.36;98124.84;5062822;28;20460;-77
2022/09/06 09:04:44;;;;;;;10.80;10.00;;;24.30;78.00;;;24.46;54.69;98123.78;5071495;28;20443;-74
2022/09/06 09:07:38;;;;;;;9.50;8.80;;;23.90;78.10;;;25.18;53.61;98122.38;5048809;28;20476;-76
2022/09/06 09:10:12;;;;;;;9.93;9.13;;;23.90;78.50;;;25.94;51.23;98125.66;5037176;28;20443;-76
2022/09/06 09:12:46;;;;;;;13.33;9.07;;;24.50;77.70;;;25.86;51.40;98131.94;5043908;28;20511;-76
2022/09/06 09:15:17;;;;;;;10.23;9.43;;;24.80;77.10;;;25.59;51.72;98119.84;5037703;28;20556;-76
2022/09/06 09:17:47;;;;;;;10.10;9.37;;;24.80;76.70;;;25.76;51.75;98123.88;5045697;28;20471;-75
2022/09/06 09:20:15;;;;;;;10.50;9.60;;;24.80;76.50;;;25.67;51.91;98121.84;5044685;28;20553;-76
2022/09/06 09:22:44;;;;;;;10.63;9.83;;;24.80;76.50;;;25.83;51.62;98118.72;5042873;28;20482;-77
2022/09/06 09:25:19;;;;;;;10.50;9.60;;;24.80;76.50;;;25.73;51.85;98119.78;5041393;28;20451;-76
2022/09/06 09:27:49;;;;;;;10.63;9.77;;;24.70;76.60;;;25.63;51.41;98109.78;5040711;28;20453;-77
2022/09/06 09:30:16;;;;;;;10.33;9.53;;;24.70;76.20;;;25.77;51.36;98108.91;5036502;28;20455;-76
2022/09/06 09:32:46;;;;;;;10.47;9.57;;;24.60;76.20;;;25.49;52.08;98100.72;5037439;28;20466;-75
2022/09/06 09:35:23;;;;;;;10.03;9.03;;;24.50;76.50;;;25.44;51.84;98085.03;5040142;28;20464;-76
2022/09/06 09:38:03;;;;;;;10.70;9.90;;;24.50;76.50;;;25.76;51.55;98096.22;5042371;28;20507;-75
2022/09/06 09:40:34;;;;;;;11.23;10.30;;;24.60;76.50;;;25.52;52.04;98087.09;5051856;28;20472;-75
2022/09/06 09:43:26;;;;;;;11.13;10.33;;;24.60;76.40;;;25.65;52.33;98085.41;5046036;28;20546;-76
2022/09/06 09:46:16;;;;;;;11.50;10.47;;;24.50;76.60;;;25.62;51.93;98086.03;5020692;28;20532;-75
2022/09/06 09:49:04;;;;;;;11.03;10.23;;;24.40;76.40;;;25.83;51.89;98091.06;5034456;28;20458;-77
2022/09/06 09:51:33;;;;;;;10.60;9.70;;;24.60;76.70;;;25.26;52.92;98073.03;5032493;28;20469;-76
2022/09/06 09:54:04;;;;;;;11.20;10.40;;;24.50;76.70;;;25.51;51.70;98054.22;5041481;28;20458;-75
2022/09/06 09:56:42;;;;;;;11.27;10.37;;;24.50;76.20;;;25.62;51.80;98072.19;5042253;28;20457;-75
2022/09/06 09:59:24;;;;;;;10.50;9.50;;;24.60;76.00;;;25.66;51.25;98073.19;5044802;28;20503;-76
2022/09/06 10:01:55;;;;;;;9.13;8.43;;;24.60;75.80;;;25.46;52.00;98067.00;5042269;28;20485;-77
2022/09/06 10:04:31;;;;;;;9.57;8.90;;;24.60;75.60;;;25.83;51.18;98063.38;5035212;28;20530;-76
2022/09/06 10:07:10;;;;;;;9.63;8.73;;;24.70;75.40;;;25.97;50.86;98060.56;5045706;28;20497;-79
2022/09/06 10:09:42;;;;;;;9.87;9.07;;;24.90;75.40;;;26.17;50.44;98067.50;5044190;28;20457;-77
2022/09/06 10:12:17;;;;;;;10.00;9.27;;;24.90;75.20;;;26.16;49.81;98060.34;5031832;28;20518;-75
2022/09/06 10:14:47;;;;;;;9.47;8.47;;;25.00;74.40;;;26.26;49.24;98065.63;5032552;28;20460;-76
2022/09/06 10:17:31;;;;;;;8.73;7.93;;;25.20;74.20;;;26.25;49.66;98058.44;5035658;28;20567;-76
2022/09/06 10:20:06;;;;;;;10.00;9.10;;;25.30;74.00;;;26.37;49.05;98044.00;5037214;28;20988;-76
2022/09/06 10:22:43;;;;;;;9.73;8.93;;;25.40;73.50;;;26.42;48.74;98051.34;5036834;28;20461;-75
2022/09/06 10:25:43;;;;;;;9.20;8.40;;;25.40;73.10;;;26.57;48.46;98052.88;5038742;28;20513;-77
2022/09/06 10:28:31;;;;;;;8.17;7.40;;;25.40;73.00;;;26.61;47.77;98053.03;5037424;28;20504;-76